Latest Weather Observations for Warruwi

IDD60801

Issued at 5:01 pm CST Friday 12 February 2016 (issued every 30 minutes, with the page automatically refreshed every 10 minutes)

About weather observations | Map of weather stations | Latest weather observations for NT | Other Formats
Station Details ID: 014401 Name: WARRUWI AIRPORT Lat: -11.65 Lon: 133.38 Height: 19.2 m
Data from the previous 72 hours. | See also: Recent months at Warruwi
Date/Time
CST
Temp
°C
App
Temp
°C
Dew
Point
Rel
Hum
%
Delta-T
°C
Wind Press
QNH
hPa
Press
MSL
hPa
Rain
since 9 am
mm
Dir
 
Spd
km/h
Gust
km/h
Spd
kts
Gust
kts
12/05:00pm 29.9 35.9 26.3 81 2.6 NW 7 15 4 8 1006.3 1006.1 0.0
12/04:30pm 30.2 36.2 26.4 80 2.7 NNW 7 17 4 9 1005.7 1005.5 0.0
12/04:00pm 30.4 35.6 26.3 79 2.9 NW 11 17 6 9 1005.9 1005.7 0.0
12/03:30pm 30.8 36.0 26.3 77 3.2 NW 11 20 6 11 1006.4 1006.2 0.0
12/03:00pm 30.3 35.0 25.6 76 3.3 NNW 11 19 6 10 1006.3 1006.1 0.0
12/02:30pm 31.4 36.2 25.7 71 4.1 NNW 11 24 6 13 1006.3 1006.1 0.0
12/02:00pm 31.8 36.4 25.4 69 4.5 N 11 20 6 11 1006.5 1006.3 0.0
12/01:30pm 31.6 36.5 24.7 67 4.9 N 7 13 4 7 1006.7 1006.5 0.0
12/01:00pm 31.5 37.0 24.6 67 4.8 N 4 9 2 5 1007.3 1007.1 0.0
12/12:30pm 31.3 37.1 25.2 70 4.3 NE 4 7 2 4 1007.9 1007.7 0.0
12/12:00pm 31.1 36.5 25.2 71 4.2 ENE 6 9 3 5 1008.1 1007.9 0.0
12/11:30am 31.1 37.2 25.0 70 4.3 ESE 2 6 1 3 1008.5 1008.3 0.0
12/11:00am 30.7 36.7 24.8 71 4.1 WSW 2 6 1 3 1008.7 1008.5 0.0
12/10:30am 30.1 35.5 25.2 75 3.5 WNW 6 9 3 5 1009.2 1009.0 0.0
12/10:00am 29.9 35.5 24.8 74 3.6 WNW 4 7 2 4 1009.1 1008.9 0.0
12/09:30am 29.6 35.9 24.7 75 3.4 CALM 0 6 0 3 1009.1 1008.9 0.0
12/09:00am 29.1 34.2 24.9 78 2.9 W 7 11 4 6 1009.3 1009.1 5.2
12/08:30am 28.3 33.3 24.5 80 2.6 SW 6 9 3 5 1009.2 1009.0 5.2
12/08:00am 27.8 33.1 25.0 85 2.0 SSW 6 9 3 5 1008.9 1008.7 5.2
12/07:30am 27.2 31.8 24.8 87 1.7 SW 9 15 5 8 1008.8 1008.6 5.2
12/07:00am 26.6 31.2 24.8 90 1.3 SW 9 15 5 8 1008.8 1008.6 5.2
12/06:30am 26.9 32.1 25.1 90 1.3 SW 7 11 4 6 1008.3 1008.1 5.2
12/06:00am 26.4 31.6 24.8 91 1.1 SW 6 9 3 5 1007.7 1007.5 5.2
12/05:30am 26.3 31.7 24.5 90 1.2 S 4 7 2 4 1007.4 1007.2 5.2
12/05:00am 26.2 30.1 24.2 89 1.4 SW 11 17 6 9 1007.5 1007.3 5.2
12/04:30am 26.2 31.2 24.8 92 1.0 SW 7 11 4 6 1007.7 1007.5 4.8
12/04:00am 26.8 32.9 25.0 90 1.3 S 2 6 1 3 1007.7 1007.5 4.4
12/03:30am 26.9 32.8 24.7 88 1.5 S 2 4 1 2 1007.4 1007.2 4.0
12/03:00am 26.8 32.2 25.2 91 1.1 SSW 6 9 3 5 1006.8 1006.6 4.0
12/02:30am 27.1 33.2 26.2 95 0.6 WNW 6 7 3 4 1006.2 1006.0 4.0
12/02:00am 26.8 32.6 25.2 91 1.1 SW 4 7 2 4 1007.0 1006.8 4.0
12/01:30am 27.4 35.0 26.7 96 0.5 CALM 0 0 0 0 1007.7 1007.5 4.0
12/01:00am 27.3 34.1 26.2 94 0.8 NW 2 4 1 2 1007.8 1007.6 4.0
12/12:30am 26.9 33.6 26.0 95 0.6 WNW 2 7 1 4 1007.9 1007.7 4.0
12/12:00am 27.5 30.2 25.1 87 1.7 W 20 32 11 17 1008.3 1008.1 0.0
 
Date/Time
CST
Temp
°C
App
Temp
°C
Dew
Point
Rel
Hum
%
Delta-T
°C
Wind Press
QNH
hPa
Press
MSL
hPa
Rain
since 9 am
mm
Dir
 
Spd
km/h
Gust
km/h
Spd
kts
Gust
kts
11/11:30pm 27.6 30.2 24.0 81 2.5 SSW 17 28 9 15 1008.7 1008.5 0.0
11/11:00pm 29.7 36.1 26.9 85 2.0 WNW 7 13 4 7 1008.7 1008.5 0.0
11/10:30pm 29.7 35.6 26.7 84 2.2 WNW 9 19 5 10 1008.5 1008.3 0.0
11/10:00pm 29.7 35.3 26.3 82 2.4 NW 9 19 5 10 1008.1 1007.9 0.0
11/09:30pm 29.9 35.6 25.9 79 2.8 NW 7 13 4 7 1007.6 1007.4 0.0
11/09:00pm 29.6 35.1 25.6 79 2.8 NW 7 13 4 7 1007.3 1007.1 0.0
11/08:30pm 29.7 35.7 26.3 82 2.4 NW 7 13 4 7 1007.0 1006.8 0.0
11/08:00pm 29.7 35.7 26.1 81 2.6 NNW 6 13 3 7 1006.3 1006.1 0.0
11/07:30pm 29.9 35.6 25.9 79 2.8 NNW 7 13 4 7 1006.1 1005.9 0.0
11/07:00pm 30.3 35.4 25.6 76 3.3 NNW 9 19 5 10 1005.5 1005.3 0.0
11/06:30pm 31.2 35.8 24.8 69 4.5 NNW 9 17 5 9 1005.1 1004.9 0.0
11/06:00pm 31.5 36.5 25.4 70 4.3 N 9 17 5 9 1004.7 1004.5 0.0
11/05:30pm 32.1 37.1 25.4 67 4.8 N 9 19 5 10 1004.4 1004.2 0.0
11/05:00pm 31.6 35.8 24.7 67 4.8 N 11 19 6 10 1004.3 1004.1 0.0
11/04:30pm 31.6 35.4 24.7 67 4.9 NNW 13 20 7 11 1004.3 1004.1 0.0
11/04:00pm 31.7 36.3 25.3 69 4.5 NNW 11 19 6 10 1004.3 1004.1 0.0
11/03:30pm 32.0 36.4 25.1 67 4.9 NNW 11 17 6 9 1004.3 1004.1 0.0
11/03:00pm 31.8 36.9 25.6 69 4.4 NNW 9 17 5 9 1004.6 1004.4 0.0
11/02:30pm 32.4 37.6 25.7 68 4.8 N 9 20 5 11 1004.9 1004.7 0.0
11/02:00pm 32.5 38.3 26.1 69 4.6 NNW 7 15 4 8 1005.3 1005.1 0.0
11/01:30pm 30.8 35.4 24.7 70 4.3 N 9 13 5 7 1005.7 1005.5 0.0
11/01:00pm 31.5 35.7 24.1 65 5.2 NE 9 13 5 7 1006.1 1005.9 0.0
11/12:30pm 31.6 36.9 25.0 68 4.7 NE 6 11 3 6 1006.4 1006.2 0.0
11/12:00pm 30.5 34.8 24.2 69 4.4 ENE 9 13 5 7 1007.0 1006.8 0.0
11/11:30am 31.9 36.4 24.0 63 5.5 SSE 7 11 4 6 1007.3 1007.1 0.0
11/11:00am 31.7 36.8 24.6 66 5.0 S 6 13 3 7 1007.4 1007.2 0.0
11/10:30am 31.4 36.2 24.5 67 4.8 W 7 13 4 7 1007.6 1007.4 0.0
11/10:00am 30.4 35.3 24.3 70 4.3 W 6 11 3 6 1007.8 1007.6 0.0
11/09:30am 29.8 33.8 23.7 70 4.2 W 9 13 5 7 1008.1 1007.9 0.0
11/09:00am 29.4 32.7 24.5 75 3.4 W 15 19 8 10 1008.2 1008.0 2.0
11/08:30am 29.3 32.9 24.4 75 3.4 W 13 19 7 10 1007.9 1007.7 2.0
11/08:00am 28.6 32.6 24.4 78 2.9 W 11 17 6 9 1007.3 1007.1 2.0
11/07:30am 27.6 31.5 24.2 82 2.4 W 11 15 6 8 1007.1 1006.9 2.0
11/07:00am 26.6 30.7 23.3 82 2.3 WSW 7 9 4 5 1007.1 1006.9 2.0
11/06:30am 26.8 29.9 22.8 79 2.7 WSW 11 15 6 8 1007.1 1006.9 2.0
11/06:00am 26.7 30.0 23.2 81 2.4 WSW 11 15 6 8 1006.9 1006.7 2.0
11/05:30am 26.3 30.3 23.8 86 1.7 WSW 9 11 5 6 1006.9 1006.7 2.0
11/05:00am 26.1 30.3 23.4 85 1.8 WSW 7 13 4 7 1006.9 1006.7 2.0
11/04:30am 26.0 30.3 23.7 87 1.6 SW 7 19 4 10 1006.5 1006.3 2.0
11/04:00am 26.4 30.0 23.7 85 1.9 WSW 11 13 6 7 1006.1 1005.9 2.0
11/03:30am 26.6 30.8 24.1 86 1.7 WSW 9 15 5 8 1006.1 1005.9 2.0
11/03:00am 26.2 29.7 23.5 85 1.8 WSW 11 13 6 7 1006.3 1006.1 2.0
11/02:30am 26.0 29.8 23.5 86 1.7 SW 9 11 5 6 1006.5 1006.3 2.0
11/02:00am 25.6 30.0 23.8 90 1.2 SW 7 9 4 5 1007.0 1006.8 2.0
11/01:30am 25.6 30.5 24.4 93 0.8 WSW 6 9 3 5 1007.2 1007.0 2.0
11/01:00am 25.3 29.9 24.1 93 0.8 WSW 7 9 4 5 1007.7 1007.5 2.0
11/12:30am 25.2 29.7 24.0 93 0.8 SW 7 11 4 6 1008.0 1007.8 2.0
11/12:00am 25.4 29.4 24.4 94 0.7 SW 11 17 6 9 1008.6 1008.4 2.0
 
Date/Time
CST
Temp
°C
App
Temp
°C
Dew
Point
Rel
Hum
%
Delta-T
°C
Wind Press
QNH
hPa
Press
MSL
hPa
Rain
since 9 am
mm
Dir
 
Spd
km/h
Gust
km/h
Spd
kts
Gust
kts
10/11:30pm 25.7 30.4 24.3 92 1.0 SSW 7 9 4 5 1008.9 1008.7 2.0
10/11:00pm 26.4 29.3 23.9 86 1.7 SSW 15 22 8 12 1009.3 1009.1 0.2
10/10:30pm 27.2 30.8 23.0 78 2.9 S 9 17 5 9 1009.2 1009.0 0.0
10/10:00pm 27.2 30.5 23.2 79 2.7 SSE 11 17 6 9 1008.9 1008.7 0.0
10/09:30pm 26.7 30.1 23.4 82 2.3 SSE 11 17 6 9 1008.6 1008.4 0.0
10/09:00pm 27.4 30.5 23.6 80 2.6 SSE 13 20 7 11 1008.6 1008.4 0.0
10/08:30pm 27.0 29.3 23.5 81 2.4 SSE 17 24 9 13 1008.6 1008.4 0.0
10/08:00pm 27.7 29.7 23.9 80 2.6 SE 20 33 11 18 1008.5 1008.3 0.0
10/07:30pm 28.2 32.1 24.2 79 2.8 SE 11 15 6 8 1007.2 1007.0 0.0
10/07:00pm 28.5 31.6 24.1 77 3.0 W 15 22 8 12 1006.5 1006.3 0.0
10/06:30pm 28.4 32.4 24.4 79 2.8 WNW 11 17 6 9 1006.2 1006.0 0.0
10/06:00pm 28.7 31.9 24.9 80 2.7 W 17 24 9 13 1005.5 1005.3 0.0
10/05:30pm 29.4 31.6 24.0 72 3.8 W 19 24 10 13 1005.1 1004.9 0.0
10/05:00pm 29.2 33.4 24.7 77 3.1 WNW 11 20 6 11 1004.9 1004.7 0.0
10/04:30pm 28.7 33.3 24.7 79 2.8 WNW 9 15 5 8 1004.3 1004.1 0.0
10/04:00pm 30.7 34.5 24.1 68 4.6 WSW 11 17 6 9 1004.5 1004.3 0.0
10/03:30pm 31.7 35.4 25.1 68 4.7 WNW 15 28 8 15 1004.7 1004.5 0.0
10/03:00pm 32.4 37.5 25.5 67 4.9 NW 9 20 5 11 1004.6 1004.4 0.0
10/02:30pm 33.3 38.0 25.0 61 5.9 WNW 9 17 5 9 1005.0 1004.8 0.0
10/02:00pm 33.1 37.5 25.1 63 5.7 W 11 17 6 9 1005.3 1005.1 0.0
10/01:30pm 32.1 38.6 27.1 75 3.6 WNW 7 11 4 6 1005.8 1005.6 0.0
10/01:00pm 33.3 36.7 24.7 60 6.1 WNW 15 22 8 12 1006.3 1006.1 0.0
10/12:30pm 32.9 37.1 25.9 66 5.0 WNW 15 20 8 11 1006.7 1006.5 0.0
10/12:00pm 32.3 37.6 26.4 71 4.2 WNW 11 17 6 9 1007.1 1006.9 0.0
10/11:30am 32.2 36.0 25.3 67 4.9 WNW 15 22 8 12 1007.6 1007.4 0.0
10/11:00am 31.7 36.3 26.0 72 4.1 WNW 13 20 7 11 1007.8 1007.6 0.0
10/10:30am 31.2 35.8 26.0 74 3.7 WNW 13 19 7 10 1007.9 1007.7 0.0
10/10:00am 30.4 33.9 25.5 75 3.5 W 17 22 9 12 1008.2 1008.0 0.0
10/09:30am 30.5 35.1 26.0 77 3.2 WNW 13 19 7 10 1008.5 1008.3 0.0
10/09:00am 30.2 34.8 25.9 78 3.1 W 13 20 7 11 1008.3 1008.1 0.0
10/08:30am 29.7 34.1 25.7 79 2.8 W 13 19 7 10 1008.3 1008.1 0.0
10/08:00am 29.0 33.2 25.4 81 2.5 W 13 17 7 9 1008.1 1007.9 0.0
10/07:30am 28.2 33.1 25.2 84 2.1 W 9 13 5 7 1007.9 1007.7 0.0
10/07:00am 27.9 32.2 24.9 84 2.1 WSW 11 17 6 9 1007.2 1007.0 0.0
10/06:30am 27.6 31.3 24.6 84 2.1 W 13 17 7 9 1006.7 1006.5 0.0
10/06:00am 27.5 31.7 24.7 85 2.0 W 11 15 6 8 1006.4 1006.2 0.0
10/05:30am 27.6 31.3 24.6 84 2.1 W 13 17 7 9 1006.2 1006.0 0.0
10/05:00am 27.8 31.4 24.4 82 2.4 WNW 13 19 7 10 1005.8 1005.6 0.0
10/04:30am 27.7 31.6 24.3 82 2.4 WNW 11 17 6 9 1005.7 1005.5 0.0
10/04:00am 27.8 31.6 24.0 80 2.6 WNW 11 15 6 8 1005.8 1005.6 0.0
10/03:30am 27.8 32.8 24.8 84 2.1 W 7 9 4 5 1006.0 1005.8 0.0
10/03:00am 28.1 32.5 25.1 84 2.1 WSW 11 17 6 9 1006.4 1006.2 0.0
10/02:30am 28.8 32.5 25.8 84 2.1 W 17 20 9 11 1006.5 1006.3 0.0
10/02:00am 28.9 34.0 26.1 85 2.0 WNW 11 19 6 10 1006.8 1006.6 0.0
10/01:30am 28.9 34.2 25.9 84 2.1 NW 9 17 5 9 1006.9 1006.7 0.0
10/01:00am 29.1 34.0 25.9 83 2.3 WNW 11 19 6 10 1007.4 1007.2 0.0
10/12:30am 29.3 33.7 25.7 81 2.6 WNW 13 20 7 11 1008.0 1007.8 0.0
10/12:00am 29.2 33.1 25.4 80 2.7 WNW 15 26 8 14 1008.3 1008.1 0.0
 
Date/Time
CST
Temp
°C
App
Temp
°C
Dew
Point
Rel
Hum
%
Delta-T
°C
Wind Press
QNH
hPa
Press
MSL
hPa
Rain
since 9 am
mm
Dir
 
Spd
km/h
Gust
km/h
Spd
kts
Gust
kts
09/11:30pm 29.4 33.8 25.6 80 2.7 WNW 13 22 7 12 1009.0 1008.8 0.0
09/11:00pm 29.4 33.9 25.2 78 3.0 WNW 11 19 6 10 1009.3 1009.1 0.0
09/10:30pm 28.8 33.9 24.6 78 2.9 NW 6 9 3 5 1009.2 1009.0 0.0
09/10:00pm 29.4 35.0 24.3 74 3.5 S 2 4 1 2 1009.0 1008.8 0.0
09/09:30pm 29.6 34.0 23.8 71 4.0 SW 7 9 4 5 1009.0 1008.8 0.0
09/09:00pm 29.8 34.4 24.2 72 3.9 SW 7 15 4 8 1009.5 1009.3 0.0
09/08:30pm 29.7 33.8 23.9 71 4.0 WSW 9 15 5 8 1008.8 1008.6 0.0
09/08:00pm 29.8 32.9 24.2 72 3.9 W 15 20 8 11 1007.8 1007.6 0.0
09/07:30pm 29.8 34.1 24.9 75 3.4 WNW 11 17 6 9 1007.2 1007.0 0.0
09/07:00pm 29.9 33.7 24.1 71 4.0 NW 11 20 6 11 1006.7 1006.5 0.0
09/06:30pm 29.9 33.7 24.1 71 4.0 NW 11 19 6 10 1006.0 1005.8 0.0
09/06:00pm 30.6 33.9 24.5 70 4.3 NW 15 24 8 13 1005.9 1005.7 0.0
09/05:30pm 31.2 34.7 25.5 71 4.0 NW 17 30 9 16 1005.6 1005.4 0.0

Other Formats:

Comma delimited format used in spreadsheet applications
http://www.bom.gov.au/fwo/IDD60801/IDD60801.94139.axf

JavaScript Object Notation format (JSON) in row-major order
http://www.bom.gov.au/fwo/IDD60801/IDD60801.94139.json